Pays
Station

 

Conditions  météo  pour  Yurimaguas  -  Pérou    Pérou

  
27 °C
    
 
 

METAR pour Yurimaguas :

SPMS 182300Z 31004KT 8000 VCSH SCT015 27/25 Q1010 RMK SH N BIRD HAZARD RWY 09/27 PP000

 

Voici le bulletin pour Yurimaguas - Pérou.
 
Le bulletin a été fait il y a 12 heures et 27 minutes, à 23:00 UTC .
Le vent soufflait à la vitesse de 2.1 mètres par seconde de Nord-ouest (310°).
 
La température était de 27 °C, avec un point de rosée à 25 °C.
La température ressentie était de 31 °C.
 
La pression atmosphérique était de 1010 hPa.
L'humidité relative était de 88.8%.
 
Il y avait 3 à 4/8ème de nébulosité à une hauteur de 457 mètres.
 
La visibilité globale était de 8.0 kilomètres.
 
Actuellement averses de à proximité.

 
 
 

Pays :   A   B   C   D   E   F   G   H   I   J   K   L   M   N   O   P   Q   R   S   T   U   V   W   Y   Z

 

Partenaires :  Info Météo avec Met'info
Météo Marine avec MeteoMarine.net
Infos Site  |  Infos Légales  |  Crédits  |  Confidentialité
Contactez-nous  |  Ajouter aux favoris
© 2013-2018 METAR - Tous droits réservés